Terminal Aerodrome Forecast
Issued by NWS St Louis, MO

Home | Current Version | Previous Version | Text Only | Print | Product List | Glossary On
Versions: 1 2 3 4 5 6 7 8 9 10 11 12
000
FTUS43 KLSX 031120
TAFCOU
TAF
KCOU 031120Z 0312/0412 08004KT P6SM BKN250
     FM040400 11006KT P6SM VCSH OVC060
     FM040600 13006KT 5SM -RA OVC060
     FM040900 13005KT 2SM -RASN OVC015=

USA.gov is the U.S. government's official web portal to all federal, state and local government web resources and services.